sensor_id;sensor_type;location;lat;lon;timestamp;pressure;altitude;pressure_sealevel;temperature;humidity
72038;BME280;59900;50.788;12.904;2023-05-16T00:02:20;97068.75;;;11.42;79.50
72038;BME280;59900;50.788;12.904;2023-05-16T00:04:46;97068.75;;;11.42;79.64
72038;BME280;59900;50.788;12.904;2023-05-16T00:07:11;97080.31;;;11.41;79.86
72038;BME280;59900;50.788;12.904;2023-05-16T00:09:36;97067.34;;;11.40;79.89
72038;BME280;59900;50.788;12.904;2023-05-16T00:12:02;97064.94;;;11.38;80.06
72038;BME280;59900;50.788;12.904;2023-05-16T00:14:27;97066.19;;;11.36;80.31
72038;BME280;59900;50.788;12.904;2023-05-16T00:16:53;97062.13;;;11.33;80.48
72038;BME280;59900;50.788;12.904;2023-05-16T00:19:18;97062.13;;;11.33;80.53
72038;BME280;59900;50.788;12.904;2023-05-16T00:21:44;97062.75;;;11.35;80.33
72038;BME280;59900;50.788;12.904;2023-05-16T00:24:09;97068.19;;;11.34;80.74
72038;BME280;59900;50.788;12.904;2023-05-16T00:26:35;97069.44;;;11.31;80.76
72038;BME280;59900;50.788;12.904;2023-05-16T00:29:00;97077.75;;;11.28;80.99
72038;BME280;59900;50.788;12.904;2023-05-16T00:31:26;97069.25;;;11.26;80.80
72038;BME280;59900;50.788;12.904;2023-05-16T00:33:52;97078.38;;;11.23;81.54
72038;BME280;59900;50.788;12.904;2023-05-16T00:36:17;97073.56;;;11.20;81.60
72038;BME280;59900;50.788;12.904;2023-05-16T00:38:42;97079.00;;;11.19;81.64
72038;BME280;59900;50.788;12.904;2023-05-16T00:41:07;97082.88;;;11.16;81.64
72038;BME280;59900;50.788;12.904;2023-05-16T00:43:33;97079.22;;;11.17;81.79
72038;BME280;59900;50.788;12.904;2023-05-16T00:45:58;97087.53;;;11.14;82.08
72038;BME280;59900;50.788;12.904;2023-05-16T00:48:24;97083.28;;;11.13;81.98
72038;BME280;59900;50.788;12.904;2023-05-16T00:50:50;97091.81;;;11.09;82.30
72038;BME280;59900;50.788;12.904;2023-05-16T00:53:16;97096.03;;;11.10;82.38
72038;BME280;59900;50.788;12.904;2023-05-16T00:55:42;97102.94;;;11.04;82.69
72038;BME280;59900;50.788;12.904;2023-05-16T00:58:08;97095.69;;;11.06;82.61
72038;BME280;59900;50.788;12.904;2023-05-16T01:00:34;97104.16;;;11.08;82.49
72038;BME280;59900;50.788;12.904;2023-05-16T01:03:00;97106.38;;;11.05;82.53
72038;BME280;59900;50.788;12.904;2023-05-16T01:05:25;97101.53;;;11.02;82.94
72038;BME280;59900;50.788;12.904;2023-05-16T01:07:51;97098.91;;;11.02;82.63
72038;BME280;59900;50.788;12.904;2023-05-16T01:10:16;97105.81;;;11.03;83.19
72038;BME280;59900;50.788;12.904;2023-05-16T01:13:12;97107.22;;;10.99;83.24
72038;BME280;59900;50.788;12.904;2023-05-16T01:15:49;97100.38;;;10.98;83.46
72038;BME280;59900;50.788;12.904;2023-05-16T01:18:42;97106.81;;;11.02;82.92
72038;BME280;59900;50.788;12.904;2023-05-16T01:21:18;97108.63;;;11.01;83.00
72038;BME280;59900;50.788;12.904;2023-05-16T01:26:24;97101.78;;;11.00;83.04
72038;BME280;59900;50.788;12.904;2023-05-16T01:28:51;97108.03;;;10.99;83.24
72038;BME280;59900;50.788;12.904;2023-05-16T01:31:17;97104.59;;;10.99;83.32
72038;BME280;59900;50.788;12.904;2023-05-16T01:33:42;97106.41;;;10.98;83.06
72038;BME280;59900;50.788;12.904;2023-05-16T01:36:35;97110.66;;;10.99;83.28
72038;BME280;59900;50.788;12.904;2023-05-16T01:44:26;97118.97;;;10.96;83.23
72038;BME280;59900;50.788;12.904;2023-05-16T01:46:57;97116.34;;;10.96;83.23
72038;BME280;59900;50.788;12.904;2023-05-16T01:49:43;97112.09;;;10.95;83.06
72038;BME280;59900;50.788;12.904;2023-05-16T01:52:14;97119.59;;;10.92;83.28
72038;BME280;59900;50.788;12.904;2023-05-16T01:54:44;97128.69;;;10.89;83.43
72038;BME280;59900;50.788;12.904;2023-05-16T01:57:12;97134.34;;;10.86;83.31
72038;BME280;59900;50.788;12.904;2023-05-16T01:59:38;97140.66;;;10.85;83.50
72038;BME280;59900;50.788;12.904;2023-05-16T02:02:04;97131.56;;;10.81;83.54
72038;BME280;59900;50.788;12.904;2023-05-16T02:04:30;97142.06;;;10.81;83.63
72038;BME280;59900;50.788;12.904;2023-05-16T02:06:55;97143.69;;;10.82;83.76
72038;BME280;59900;50.788;12.904;2023-05-16T02:09:21;97141.06;;;10.82;83.66
72038;BME280;59900;50.788;12.904;2023-05-16T02:11:46;97136.38;;;10.84;83.83
72038;BME280;59900;50.788;12.904;2023-05-16T02:14:11;97141.47;;;10.86;83.74
72038;BME280;59900;50.788;12.904;2023-05-16T02:16:37;97140.81;;;10.90;83.34
72038;BME280;59900;50.788;12.904;2023-05-16T02:19:02;97150.53;;;10.90;83.40
72038;BME280;59900;50.788;12.904;2023-05-16T02:21:27;97144.47;;;10.89;83.73
72038;BME280;59900;50.788;12.904;2023-05-16T02:23:53;97143.44;;;10.90;83.71
72038;BME280;59900;50.788;12.904;2023-05-16T02:26:18;97144.44;;;10.96;83.64
72038;BME280;59900;50.788;12.904;2023-05-16T02:28:43;97140.22;;;10.95;83.54
72038;BME280;59900;50.788;12.904;2023-05-16T02:31:09;97143.44;;;10.97;82.97
72038;BME280;59900;50.788;12.904;2023-05-16T02:33:34;97139.59;;;10.99;82.86
72038;BME280;59900;50.788;12.904;2023-05-16T02:35:59;97140.97;;;11.02;82.35
72038;BME280;59900;50.788;12.904;2023-05-16T02:38:25;97144.19;;;11.04;81.57
72038;BME280;59900;50.788;12.904;2023-05-16T02:40:50;97148.06;;;11.01;81.91
72038;BME280;59900;50.788;12.904;2023-05-16T02:43:15;97143.41;;;11.03;81.49
72038;BME280;59900;50.788;12.904;2023-05-16T02:45:41;97142.38;;;11.04;81.58
72038;BME280;59900;50.788;12.904;2023-05-16T02:48:06;97148.84;;;11.08;81.66
72038;BME280;59900;50.788;12.904;2023-05-16T02:50:32;97155.75;;;11.03;81.14
72038;BME280;59900;50.788;12.904;2023-05-16T02:52:58;97152.31;;;11.02;81.37
72038;BME280;59900;50.788;12.904;2023-05-16T02:55:24;97150.91;;;11.00;81.16
72038;BME280;59900;50.788;12.904;2023-05-16T02:57:50;97153.72;;;10.98;81.32
72038;BME280;59900;50.788;12.904;2023-05-16T03:00:16;97149.28;;;10.99;81.16
72038;BME280;59900;50.788;12.904;2023-05-16T03:02:41;97149.31;;;10.92;81.33
72038;BME280;59900;50.788;12.904;2023-05-16T03:05:07;97151.16;;;10.92;81.55
72038;BME280;59900;50.788;12.904;2023-05-16T03:07:32;97146.50;;;10.87;82.04
72038;BME280;59900;50.788;12.904;2023-05-16T03:09:57;97152.97;;;10.85;82.29
72038;BME280;59900;50.788;12.904;2023-05-16T03:12:23;97159.47;;;10.82;82.14
72038;BME280;59900;50.788;12.904;2023-05-16T03:14:48;97163.69;;;10.83;82.54
72038;BME280;59900;50.788;12.904;2023-05-16T03:17:13;97165.72;;;10.88;82.49
72038;BME280;59900;50.788;12.904;2023-05-16T03:19:38;97174.00;;;10.85;82.79
72038;BME280;59900;50.788;12.904;2023-05-16T03:22:04;97178.03;;;10.81;82.82
72038;BME280;59900;50.788;12.904;2023-05-16T03:24:29;97186.75;;;10.75;82.98
72038;BME280;59900;50.788;12.904;2023-05-16T03:26:54;97185.97;;;10.74;83.31
72038;BME280;59900;50.788;12.904;2023-05-16T03:29:20;97187.78;;;10.74;83.37
72038;BME280;59900;50.788;12.904;2023-05-16T03:31:45;97189.59;;;10.73;83.29
72038;BME280;59900;50.788;12.904;2023-05-16T03:34:10;97184.94;;;10.75;83.41
72038;BME280;59900;50.788;12.904;2023-05-16T03:36:37;97189.38;;;10.75;83.51
72038;BME280;59900;50.788;12.904;2023-05-16T03:39:02;97201.31;;;10.77;83.47
72038;BME280;59900;50.788;12.904;2023-05-16T03:41:28;97195.25;;;10.77;83.71
72038;BME280;59900;50.788;12.904;2023-05-16T03:43:53;97192.63;;;10.77;83.82
72038;BME280;59900;50.788;12.904;2023-05-16T03:46:18;97199.28;;;10.79;84.00
72038;BME280;59900;50.788;12.904;2023-05-16T03:48:43;97202.31;;;10.83;83.84
72038;BME280;59900;50.788;12.904;2023-05-16T03:51:09;97201.91;;;10.86;83.62
72038;BME280;59900;50.788;12.904;2023-05-16T03:53:34;97201.69;;;10.87;83.35
72038;BME280;59900;50.788;12.904;2023-05-16T03:55:59;97210.00;;;10.91;83.54
72038;BME280;59900;50.788;12.904;2023-05-16T03:58:24;97207.53;;;10.89;83.29
72038;BME280;59900;50.788;12.904;2023-05-16T04:00:50;97218.28;;;10.88;83.32
72038;BME280;59900;50.788;12.904;2023-05-16T04:03:15;97213.25;;;10.80;81.22
72038;BME280;59900;50.788;12.904;2023-05-16T04:05:40;97227.81;;;10.76;80.52
72038;BME280;59900;50.788;12.904;2023-05-16T04:08:06;97216.09;;;10.65;79.29
72038;BME280;59900;50.788;12.904;2023-05-16T04:10:31;97227.59;;;10.57;79.46
72038;BME280;59900;50.788;12.904;2023-05-16T04:12:56;97224.97;;;10.51;79.55
72038;BME280;59900;50.788;12.904;2023-05-16T04:15:21;97230.66;;;10.54;80.08
72038;BME280;59900;50.788;12.904;2023-05-16T04:17:47;97239.34;;;10.55;79.49
72038;BME280;59900;50.788;12.904;2023-05-16T04:20:12;97249.25;;;10.53;79.80
72038;BME280;59900;50.788;12.904;2023-05-16T04:22:38;97248.22;;;10.54;79.58
72038;BME280;59900;50.788;12.904;2023-05-16T04:25:03;97252.88;;;10.58;79.79
72038;BME280;59900;50.788;12.904;2023-05-16T04:27:28;97260.16;;;10.56;79.51
72038;BME280;59900;50.788;12.904;2023-05-16T04:29:54;97266.22;;;10.50;79.76
72038;BME280;59900;50.788;12.904;2023-05-16T04:32:20;97262.56;;;10.32;79.39
72038;BME280;59900;50.788;12.904;2023-05-16T04:34:45;97264.97;;;10.13;80.43
72038;BME280;59900;50.788;12.904;2023-05-16T04:37:12;97271.84;;;10.15;80.58
72038;BME280;59900;50.788;12.904;2023-05-16T04:39:38;97277.91;;;10.15;80.80
72038;BME280;59900;50.788;12.904;2023-05-16T04:42:03;97291.19;;;10.00;80.75
72038;BME280;59900;50.788;12.904;2023-05-16T04:44:29;97282.88;;;9.97;80.88
72038;BME280;59900;50.788;12.904;2023-05-16T04:46:54;97279.84;;;10.00;80.72
72038;BME280;59900;50.788;12.904;2023-05-16T04:49:20;97281.28;;;10.02;80.61
72038;BME280;59900;50.788;12.904;2023-05-16T04:51:46;97282.13;;;10.16;80.08
72038;BME280;59900;50.788;12.904;2023-05-16T04:54:11;97288.00;;;10.25;79.74
72038;BME280;59900;50.788;12.904;2023-05-16T04:56:36;97289.44;;;10.34;79.65
72038;BME280;59900;50.788;12.904;2023-05-16T04:59:02;97288.44;;;10.35;78.91
72038;BME280;59900;50.788;12.904;2023-05-16T05:01:28;97291.03;;;10.28;79.49
72038;BME280;59900;50.788;12.904;2023-05-16T05:03:53;97295.31;;;10.29;79.28
72038;BME280;59900;50.788;12.904;2023-05-16T05:06:19;97296.72;;;10.38;80.56
72038;BME280;59900;50.788;12.904;2023-05-16T05:08:44;97309.88;;;10.45;79.42
72038;BME280;59900;50.788;12.904;2023-05-16T05:11:09;97309.06;;;10.38;79.30
72038;BME280;59900;50.788;12.904;2023-05-16T05:13:35;97326.63;;;10.37;79.22
72038;BME280;59900;50.788;12.904;2023-05-16T05:16:00;97325.22;;;10.35;79.83
72038;BME280;59900;50.788;12.904;2023-05-16T05:18:28;97323.38;;;10.29;79.65
72038;BME280;59900;50.788;12.904;2023-05-16T05:20:53;97335.66;;;10.22;80.56
72038;BME280;59900;50.788;12.904;2023-05-16T05:23:19;97333.19;;;10.00;81.18
72038;BME280;59900;50.788;12.904;2023-05-16T05:25:44;97323.00;;;9.84;81.81
72038;BME280;59900;50.788;12.904;2023-05-16T05:28:10;97323.41;;;9.81;82.64
72038;BME280;59900;50.788;12.904;2023-05-16T05:30:35;97323.97;;;9.70;82.33
72038;BME280;59900;50.788;12.904;2023-05-16T05:33:00;97327.97;;;9.60;82.77
72038;BME280;59900;50.788;12.904;2023-05-16T05:35:26;97337.00;;;9.57;83.22
72038;BME280;59900;50.788;12.904;2023-05-16T05:37:51;97334.38;;;9.57;83.29
72038;BME280;59900;50.788;12.904;2023-05-16T05:40:16;97348.97;;;9.66;83.12
72038;BME280;59900;50.788;12.904;2023-05-16T05:42:42;97341.09;;;9.66;83.31
72038;BME280;59900;50.788;12.904;2023-05-16T05:45:07;97341.91;;;9.67;83.38
72038;BME280;59900;50.788;12.904;2023-05-16T05:47:33;97343.72;;;9.66;83.30
72038;BME280;59900;50.788;12.904;2023-05-16T05:49:58;97343.44;;;9.48;84.12
72038;BME280;59900;50.788;12.904;2023-05-16T05:52:23;97346.41;;;9.38;84.49
72038;BME280;59900;50.788;12.904;2023-05-16T05:54:49;97355.38;;;9.23;85.41
72038;BME280;59900;50.788;12.904;2023-05-16T05:57:14;97353.63;;;9.30;85.87
72038;BME280;59900;50.788;12.904;2023-05-16T05:59:39;97353.84;;;9.35;85.70
72038;BME280;59900;50.788;12.904;2023-05-16T06:02:05;97352.97;;;9.28;86.17
72038;BME280;59900;50.788;12.904;2023-05-16T06:04:30;97350.34;;;9.28;86.16
72038;BME280;59900;50.788;12.904;2023-05-16T06:06:55;97360.94;;;9.41;85.97
72038;BME280;59900;50.788;12.904;2023-05-16T06:09:21;97364.38;;;9.41;85.33
72038;BME280;59900;50.788;12.904;2023-05-16T06:11:46;97371.09;;;9.50;85.33
72038;BME280;59900;50.788;12.904;2023-05-16T06:14:13;97372.13;;;9.56;84.93
72038;BME280;59900;50.788;12.904;2023-05-16T06:16:39;97368.09;;;9.60;84.72
72038;BME280;59900;50.788;12.904;2023-05-16T06:19:04;97366.28;;;9.61;84.61
72038;BME280;59900;50.788;12.904;2023-05-16T06:21:29;97378.81;;;9.58;84.55
72038;BME280;59900;50.788;12.904;2023-05-16T06:23:55;97372.84;;;9.43;85.09
72038;BME280;59900;50.788;12.904;2023-05-16T06:26:20;97380.06;;;9.35;85.60
72038;BME280;59900;50.788;12.904;2023-05-16T06:28:46;97377.59;;;9.27;86.60
72038;BME280;59900;50.788;12.904;2023-05-16T06:31:12;97376.78;;;9.26;86.71
72038;BME280;59900;50.788;12.904;2023-05-16T06:33:37;97378.25;;;9.35;86.76
72038;BME280;59900;50.788;12.904;2023-05-16T06:36:02;97380.28;;;9.40;85.98
72038;BME280;59900;50.788;12.904;2023-05-16T06:38:28;97384.59;;;9.47;86.16
72038;BME280;59900;50.788;12.904;2023-05-16T06:40:53;97388.91;;;9.34;85.87
72038;BME280;59900;50.788;12.904;2023-05-16T06:43:19;97386.94;;;9.36;85.80
72038;BME280;59900;50.788;12.904;2023-05-16T06:45:44;97385.47;;;9.27;86.08
72038;BME280;59900;50.788;12.904;2023-05-16T06:48:12;97379.06;;;9.36;85.72
72038;BME280;59900;50.788;12.904;2023-05-16T06:50:37;97377.44;;;9.35;85.48
72038;BME280;59900;50.788;12.904;2023-05-16T06:53:02;97390.78;;;9.40;86.32
72038;BME280;59900;50.788;12.904;2023-05-16T06:55:29;97383.94;;;9.45;85.78
72038;BME280;59900;50.788;12.904;2023-05-16T06:57:54;97390.22;;;9.44;85.90
72038;BME280;59900;50.788;12.904;2023-05-16T07:00:20;97393.84;;;9.43;86.25
72038;BME280;59900;50.788;12.904;2023-05-16T07:02:45;97398.66;;;9.40;86.35
72038;BME280;59900;50.788;12.904;2023-05-16T07:05:10;97395.63;;;9.43;86.89
72038;BME280;59900;50.788;12.904;2023-05-16T07:07:36;97392.03;;;9.44;86.61
72038;BME280;59900;50.788;12.904;2023-05-16T07:10:02;97391.66;;;9.47;86.78
72038;BME280;59900;50.788;12.904;2023-05-16T07:12:27;97388.63;;;9.50;86.27
72038;BME280;59900;50.788;12.904;2023-05-16T07:14:52;97390.44;;;9.49;86.32
72038;BME280;59900;50.788;12.904;2023-05-16T07:17:18;97384.78;;;9.46;86.09
72038;BME280;59900;50.788;12.904;2023-05-16T07:19:43;97394.38;;;9.32;86.71
72038;BME280;59900;50.788;12.904;2023-05-16T07:22:08;97386.06;;;9.29;87.08
72038;BME280;59900;50.788;12.904;2023-05-16T07:24:35;97391.09;;;9.24;87.13
72038;BME280;59900;50.788;12.904;2023-05-16T07:27:00;97387.22;;;9.20;87.53
72038;BME280;59900;50.788;12.904;2023-05-16T07:29:25;97387.50;;;9.31;87.21
72038;BME280;59900;50.788;12.904;2023-05-16T07:31:50;97389.94;;;9.33;86.64
72038;BME280;59900;50.788;12.904;2023-05-16T07:34:16;97391.25;;;9.22;86.62
72038;BME280;59900;50.788;12.904;2023-05-16T07:36:41;97401.19;;;9.27;86.66
72038;BME280;59900;50.788;12.904;2023-05-16T07:39:06;97406.44;;;9.27;86.10
72038;BME280;59900;50.788;12.904;2023-05-16T07:41:32;97409.06;;;9.27;86.39
72038;BME280;59900;50.788;12.904;2023-05-16T07:43:57;97414.16;;;9.35;86.15
72038;BME280;59900;50.788;12.904;2023-05-16T07:46:22;97413.34;;;9.34;85.77
72038;BME280;59900;50.788;12.904;2023-05-16T07:48:47;97408.03;;;9.28;85.85
72038;BME280;59900;50.788;12.904;2023-05-16T07:51:13;97410.47;;;9.29;85.54
72038;BME280;59900;50.788;12.904;2023-05-16T07:53:38;97418.44;;;9.42;85.55
72038;BME280;59900;50.788;12.904;2023-05-16T07:56:03;97423.72;;;9.49;84.66
72038;BME280;59900;50.788;12.904;2023-05-16T07:58:29;97414.00;;;9.43;84.37
72038;BME280;59900;50.788;12.904;2023-05-16T08:00:54;97415.16;;;9.34;84.75
72038;BME280;59900;50.788;12.904;2023-05-16T08:03:20;97409.53;;;9.37;84.79
72038;BME280;59900;50.788;12.904;2023-05-16T08:05:45;97403.28;;;9.38;84.52
72038;BME280;59900;50.788;12.904;2023-05-16T08:08:10;97402.03;;;9.34;84.34
72038;BME280;59900;50.788;12.904;2023-05-16T08:10:35;97409.34;;;9.38;84.44
72038;BME280;59900;50.788;12.904;2023-05-16T08:13:01;97414.16;;;9.35;84.32
72038;BME280;59900;50.788;12.904;2023-05-16T08:15:26;97421.28;;;9.20;85.39
72038;BME280;59900;50.788;12.904;2023-05-16T08:17:55;97410.88;;;9.26;85.14
72038;BME280;59900;50.788;12.904;2023-05-16T08:20:21;97407.81;;;9.23;85.49
72038;BME280;59900;50.788;12.904;2023-05-16T08:22:46;97419.09;;;9.23;85.69
72038;BME280;59900;50.788;12.904;2023-05-16T08:25:12;97423.97;;;9.26;85.40
72038;BME280;59900;50.788;12.904;2023-05-16T08:27:37;97439.50;;;9.28;84.40
72038;BME280;59900;50.788;12.904;2023-05-16T08:30:02;97446.63;;;9.34;84.22
72038;BME280;59900;50.788;12.904;2023-05-16T08:32:28;97441.13;;;9.29;84.23
72038;BME280;59900;50.788;12.904;2023-05-16T08:34:53;97443.97;;;9.27;84.61
72038;BME280;59900;50.788;12.904;2023-05-16T08:37:18;97458.28;;;9.31;84.14
72038;BME280;59900;50.788;12.904;2023-05-16T08:39:44;97463.22;;;9.41;84.25
72038;BME280;59900;50.788;12.904;2023-05-16T08:42:10;97464.47;;;9.45;82.77
72038;BME280;59900;50.788;12.904;2023-05-16T08:44:35;97462.53;;;9.53;83.05
72038;BME280;59900;50.788;12.904;2023-05-16T08:47:17;97460.75;;;9.61;82.72
72038;BME280;59900;50.788;12.904;2023-05-16T08:49:42;97464.78;;;9.63;82.33
72038;BME280;59900;50.788;12.904;2023-05-16T08:52:09;97464.41;;;9.66;82.07
72038;BME280;59900;50.788;12.904;2023-05-16T08:54:35;97469.16;;;9.77;81.97
72038;BME280;59900;50.788;12.904;2023-05-16T08:57:01;97470.19;;;9.83;81.88
72038;BME280;59900;50.788;12.904;2023-05-16T08:59:27;97466.13;;;9.80;81.68
72038;BME280;59900;50.788;12.904;2023-05-16T09:01:53;97462.09;;;9.84;82.28
72038;BME280;59900;50.788;12.904;2023-05-16T09:04:19;97472.81;;;9.89;82.06
72038;BME280;59900;50.788;12.904;2023-05-16T09:06:44;97472.31;;;10.00;81.67
72038;BME280;59900;50.788;12.904;2023-05-16T09:09:10;97469.31;;;10.03;81.57
72038;BME280;59900;50.788;12.904;2023-05-16T09:11:37;97464.28;;;10.08;80.99
72038;BME280;59900;50.788;12.904;2023-05-16T09:14:02;97460.31;;;10.19;80.48
72038;BME280;59900;50.788;12.904;2023-05-16T09:16:29;97460.13;;;10.21;80.57
72038;BME280;59900;50.788;12.904;2023-05-16T09:18:57;97459.91;;;10.16;80.20
72038;BME280;59900;50.788;12.904;2023-05-16T09:21:26;97464.72;;;10.19;80.84
72038;BME280;59900;50.788;12.904;2023-05-16T09:23:51;97469.78;;;10.13;80.99
72038;BME280;59900;50.788;12.904;2023-05-16T09:26:17;97483.25;;;10.10;81.43
72038;BME280;59900;50.788;12.904;2023-05-16T09:28:42;97491.41;;;10.16;81.29
72038;BME280;59900;50.788;12.904;2023-05-16T09:31:21;97493.00;;;10.17;81.28
72038;BME280;59900;50.788;12.904;2023-05-16T09:33:47;97484.22;;;10.03;81.68
72038;BME280;59900;50.788;12.904;2023-05-16T09:36:14;97485.00;;;9.97;82.13
72038;BME280;59900;50.788;12.904;2023-05-16T09:38:39;97490.59;;;9.87;83.26
72038;BME280;59900;50.788;12.904;2023-05-16T09:41:05;97495.41;;;9.84;83.00
72038;BME280;59900;50.788;12.904;2023-05-16T09:43:30;97497.44;;;9.82;83.00
72038;BME280;59900;50.788;12.904;2023-05-16T09:45:58;97503.50;;;9.82;83.38
72038;BME280;59900;50.788;12.904;2023-05-16T09:48:24;97504.69;;;9.80;83.14
72038;BME280;59900;50.788;12.904;2023-05-16T09:50:53;97508.50;;;9.77;83.72
72038;BME280;59900;50.788;12.904;2023-05-16T09:53:29;97510.97;;;9.85;83.27
72038;BME280;59900;50.788;12.904;2023-05-16T09:56:04;97506.94;;;9.83;83.20
72038;BME280;59900;50.788;12.904;2023-05-16T09:58:33;97502.28;;;9.85;83.15
72038;BME280;59900;50.788;12.904;2023-05-16T10:00:59;97499.34;;;9.94;83.05
72038;BME280;59900;50.788;12.904;2023-05-16T10:03:25;97501.19;;;10.00;81.71
72038;BME280;59900;50.788;12.904;2023-05-16T10:05:51;97504.25;;;10.10;81.33
72038;BME280;59900;50.788;12.904;2023-05-16T10:08:19;97500.75;;;10.31;80.24
72038;BME280;59900;50.788;12.904;2023-05-16T10:10:46;97491.97;;;10.52;79.83
72038;BME280;59900;50.788;12.904;2023-05-16T10:13:14;97495.88;;;10.69;79.08
72038;BME280;59900;50.788;12.904;2023-05-16T10:15:40;97496.50;;;10.78;78.12
72038;BME280;59900;50.788;12.904;2023-05-16T10:18:06;97495.28;;;10.74;76.68
72038;BME280;59900;50.788;12.904;2023-05-16T10:20:38;97507.78;;;10.65;76.40
72038;BME280;59900;50.788;12.904;2023-05-16T10:23:05;97504.31;;;10.58;77.04
72038;BME280;59900;50.788;12.904;2023-05-16T10:25:35;97496.03;;;10.61;77.23
72038;BME280;59900;50.788;12.904;2023-05-16T10:28:03;97493.84;;;10.64;77.89
72038;BME280;59900;50.788;12.904;2023-05-16T10:30:29;97483.28;;;10.58;78.00
72038;BME280;59900;50.788;12.904;2023-05-16T10:32:55;97489.75;;;10.55;78.78
72038;BME280;59900;50.788;12.904;2023-05-16T10:35:20;97488.34;;;10.53;78.67
72038;BME280;59900;50.788;12.904;2023-05-16T10:37:47;97495.81;;;10.49;78.78
72038;BME280;59900;50.788;12.904;2023-05-16T10:40:13;97488.97;;;10.61;79.52
72038;BME280;59900;50.788;12.904;2023-05-16T10:42:43;97495.25;;;10.67;77.94
72038;BME280;59900;50.788;12.904;2023-05-16T10:45:18;97495.66;;;10.64;78.06
72038;BME280;59900;50.788;12.904;2023-05-16T10:47:56;97492.03;;;10.65;78.35
72038;BME280;59900;50.788;12.904;2023-05-16T10:53:28;97495.31;;;10.87;77.93
72038;BME280;59900;50.788;12.904;2023-05-16T11:14:04;97481.59;;;11.04;76.46
72038;BME280;59900;50.788;12.904;2023-05-16T11:16:30;97474.53;;;11.05;76.41
72038;BME280;59900;50.788;12.904;2023-05-16T11:19:04;97477.75;;;11.13;76.08
72038;BME280;59900;50.788;12.904;2023-05-16T11:24:33;97475.38;;;11.45;75.81
72038;BME280;59900;50.788;12.904;2023-05-16T11:27:00;97477.78;;;11.53;74.95
72038;BME280;59900;50.788;12.904;2023-05-16T11:29:30;97483.06;;;11.53;74.10
72038;BME280;59900;50.788;12.904;2023-05-16T11:32:02;97480.03;;;11.56;73.95
72038;BME280;59900;50.788;12.904;2023-05-16T11:34:28;97479.22;;;11.49;74.35
72038;BME280;59900;50.788;12.904;2023-05-16T11:36:54;97478.41;;;11.55;74.30
72038;BME280;59900;50.788;12.904;2023-05-16T11:39:20;97481.63;;;11.57;74.11
72038;BME280;59900;50.788;12.904;2023-05-16T11:41:46;97484.28;;;11.50;74.78
72038;BME280;59900;50.788;12.904;2023-05-16T11:44:11;97486.91;;;11.37;75.83
72038;BME280;59900;50.788;12.904;2023-05-16T11:46:40;97490.53;;;11.23;76.65
72038;BME280;59900;50.788;12.904;2023-05-16T11:49:06;97481.19;;;10.94;76.68
72038;BME280;59900;50.788;12.904;2023-05-16T11:51:33;97491.47;;;10.83;77.72
72038;BME280;59900;50.788;12.904;2023-05-16T11:53:59;97481.75;;;10.83;77.52
72038;BME280;59900;50.788;12.904;2023-05-16T11:56:24;97500.31;;;10.68;77.86
72038;BME280;59900;50.788;12.904;2023-05-16T11:58:50;97483.13;;;10.66;78.37
72038;BME280;59900;50.788;12.904;2023-05-16T12:01:15;97478.88;;;10.72;78.22
72038;BME280;59900;50.788;12.904;2023-05-16T12:03:41;97483.34;;;10.71;77.80
72038;BME280;59900;50.788;12.904;2023-05-16T12:06:07;97489.22;;;10.73;78.09
72038;BME280;59900;50.788;12.904;2023-05-16T12:08:32;97493.88;;;10.71;78.05
72038;BME280;59900;50.788;12.904;2023-05-16T12:10:59;97492.44;;;10.75;78.36
72038;BME280;59900;50.788;12.904;2023-05-16T12:13:24;97503.75;;;10.69;78.46
72038;BME280;59900;50.788;12.904;2023-05-16T12:15:50;97507.41;;;10.68;78.62
72038;BME280;59900;50.788;12.904;2023-05-16T12:18:16;97484.56;;;10.75;78.72
72038;BME280;59900;50.788;12.904;2023-05-16T12:20:43;97485.59;;;10.87;78.66
72038;BME280;59900;50.788;12.904;2023-05-16T12:23:12;97486.59;;;10.86;77.98
72038;BME280;59900;50.788;12.904;2023-05-16T12:25:38;97484.34;;;10.70;78.37
72038;BME280;59900;50.788;12.904;2023-05-16T12:28:11;97485.75;;;10.59;78.43
72038;BME280;59900;50.788;12.904;2023-05-16T12:30:40;97509.19;;;10.61;78.38
72038;BME280;59900;50.788;12.904;2023-05-16T12:33:11;97501.50;;;10.59;77.93
72038;BME280;59900;50.788;12.904;2023-05-16T12:35:44;97511.44;;;10.71;77.35
72038;BME280;59900;50.788;12.904;2023-05-16T12:38:14;97523.81;;;10.83;77.25
72038;BME280;59900;50.788;12.904;2023-05-16T12:40:41;97520.78;;;10.86;76.47
72038;BME280;59900;50.788;12.904;2023-05-16T12:43:21;97522.84;;;10.97;76.07
72038;BME280;59900;50.788;12.904;2023-05-16T12:45:51;97519.44;;;11.10;75.68
72038;BME280;59900;50.788;12.904;2023-05-16T12:48:17;97515.81;;;11.31;75.65
72038;BME280;59900;50.788;12.904;2023-05-16T12:50:42;97519.47;;;11.43;74.68
72038;BME280;59900;50.788;12.904;2023-05-16T12:53:11;97518.88;;;11.41;75.34
72038;BME280;59900;50.788;12.904;2023-05-16T12:55:37;97521.72;;;11.33;75.54
72038;BME280;59900;50.788;12.904;2023-05-16T12:58:02;97530.97;;;11.15;76.01
72038;BME280;59900;50.788;12.904;2023-05-16T13:00:27;97526.91;;;11.00;76.66
72038;BME280;59900;50.788;12.904;2023-05-16T13:02:52;97537.91;;;10.69;77.38
72038;BME280;59900;50.788;12.904;2023-05-16T13:05:18;97557.00;;;10.43;78.25
72038;BME280;59900;50.788;12.904;2023-05-16T13:07:46;97557.13;;;10.29;79.07
72038;BME280;59900;50.788;12.904;2023-05-16T13:10:11;97554.28;;;10.24;79.04
72038;BME280;59900;50.788;12.904;2023-05-16T13:12:38;97555.09;;;10.31;79.28
72038;BME280;59900;50.788;12.904;2023-05-16T13:15:04;97567.06;;;10.33;78.66
72038;BME280;59900;50.788;12.904;2023-05-16T13:17:31;97560.34;;;10.31;78.78
72038;BME280;59900;50.788;12.904;2023-05-16T13:19:57;97565.81;;;10.29;78.55
72038;BME280;59900;50.788;12.904;2023-05-16T13:22:22;97566.22;;;10.26;78.99